Aviation Digital Data Service (ADDS)

Output produced by METARs form (2312 UTC 15 July 2018)
found at http://www.aviationweather.gov/adds/metars/
 
KIDI 152255Z AUTO 23008G14KT 10SM CLR 26/20 A3006 RMK A01
KIDI 152235Z AUTO 24007KT 10SM FEW017 27/22 A3006 RMK A01
KIDI 152215Z AUTO 25007G13KT 9SM SCT018 27/24 A3006 RMK A01
KIDI 152155Z AUTO 24004KT 10SM CLR 28/23 A3005 RMK A01
KIDI 152135Z AUTO 00000KT 9SM CLR 27/23 A3005 RMK A01
KIDI 152115Z AUTO 00000KT 10SM CLR 28/23 A3005 RMK A01
KIDI 152055Z AUTO 00000KT 10SM CLR 29/22 A3005 RMK A01
KIDI 152035Z AUTO 00000KT 10SM FEW110 29/22 A3005 RMK A01
KIDI 152015Z AUTO 00000KT 9SM FEW100 29/22 A3006 RMK A01
KIDI 151955Z AUTO 00000KT 10SM FEW100 29/22 A3007 RMK A01
KIDI 151935Z AUTO 00000KT 10SM BKN100 BKN120 28/21 A3007 RMK A01
KIDI 151915Z AUTO 26003KT 10SM BKN095 29/20 A3007 RMK A01
KIDI 151855Z AUTO VRB03KT 10SM FEW100 29/21 A3007 RMK A01
KIDI 151835Z AUTO 00000KT 9SM CLR 29/21 A3007 RMK A01
KIDI 151815Z AUTO 20005KT 10SM FEW120 27/21 A3008 RMK A01
KIDI 151755Z AUTO 25007G12KT 10SM FEW041 FEW060 SCT120 26/20 A3009 RMK A01
KIDI 151735Z AUTO 22006KT 9SM SCT027 BKN032 OVC060 26/20 A3009 RMK A01
KIDI 151715Z AUTO 22006KT 9SM BKN026 BKN032 BKN110 28/22 A3009 RMK A01
KIDI 151655Z AUTO 00000KT 9SM SCT025 SCT110 28/23 A3009 RMK A01
KIDI 151635Z AUTO 14003KT 10SM FEW024 SCT042 SCT110 27/22 A3009 RMK A01
KIDI 151615Z AUTO 00000KT 10SM SCT041 BKN110 28/22 A3010 RMK A01
KIDI 151555Z AUTO 00000KT 9SM FEW040 27/23 A3010 RMK A01
KIDI 151535Z AUTO 00000KT 9SM FEW120 26/23 A3010 RMK A01
KIDI 151515Z AUTO 22005KT 9SM FEW120 25/23 A3010 RMK A01
KIDI 151455Z AUTO 23005KT 10SM FEW120 25/23 A3010 RMK A01
KIDI 151435Z AUTO 22005KT 9SM FEW120 25/22 A3010 RMK A01
KIDI 151415Z AUTO 00000KT 10SM FEW110 24/22 A3011 RMK A01
KIDI 151355Z AUTO VRB03KT 9SM FEW110 24/23 A3011 RMK A01
KIDI 151335Z AUTO 22004KT 9SM SCT110 23/22 A3011 RMK A01
KIDI 151315Z AUTO 22004KT 9SM FEW110 23/22 A3011 RMK A01
KIDI 151255Z AUTO 00000KT 9SM CLR 23/22 A3010 RMK A01
KIDI 151235Z AUTO 00000KT 10SM CLR 22/21 A3010 RMK A01
KIDI 151215Z AUTO 00000KT 10SM FEW044 FEW050 FEW070 22/21 A3011 RMK A01
KIDI 151155Z AUTO 00000KT 10SM BKN044 BKN050 BKN070 22/21 A3012 RMK A01
KIDI 151135Z AUTO 00000KT 10SM BKN046 BKN055 BKN070 21/21 A3011 RMK A01
KIDI 151115Z AUTO 23004KT 9SM BKN043 BKN055 22/21 A3010 RMK A01
KIDI 151055Z AUTO 00000KT 10SM BKN042 BKN048 BKN055 22/20 A3010 RMK A01
KIDI 151035Z AUTO 00000KT 9SM FEW050 SCT065 SCT070 21/21 A3009 RMK A01
KIDI 151015Z AUTO 19004KT 6SM BR FEW003 SCT031 BKN070 22/21 A3010 RMK A01
KIDI 150955Z AUTO 36004G17KT 3/4SM BR BKN003 OVC022 22/21 A3011 RMK A01
KIDI 150935Z AUTO 00000KT 7SM BKN035 OVC042 23/22 A3009 RMK A01
KIDI 150915Z AUTO 18003KT 6SM BR FEW027 BKN047 OVC070 23/22 A3008 RMK A01
KIDI 150855Z AUTO 00000KT 10SM SCT040 BKN048 OVC070 23/21 A3008 RMK A01
KIDI 150835Z AUTO 00000KT 2SM BR OVC049 23/21 A3009 RMK A01
KIDI 150815Z AUTO 00000KT 8SM BKN046 BKN055 BKN120 23/21 A3010 RMK A01
KIDI 150755Z AUTO 00000KT 9SM SCT050 23/21 A3010 RMK A01
KIDI 150735Z AUTO 00000KT 10SM FEW050 23/21 A3010 RMK A01
KIDI 150715Z AUTO 00000KT 10SM CLR 23/21 A3010 RMK A01
KIDI 150655Z AUTO 00000KT 10SM CLR 23/21 A3010 RMK A01
KIDI 150635Z AUTO 00000KT 10SM CLR 23/21 A3010 RMK A01
KIDI 150615Z AUTO 00000KT 10SM CLR 23/21 A3010 RMK A01
KIDI 150555Z AUTO 00000KT 10SM CLR 23/21 A3011 RMK A01
KIDI 150535Z AUTO 00000KT 10SM FEW050 23/21 A3011 RMK A01
KIDI 150515Z AUTO 00000KT 10SM SCT049 23/21 A3012 RMK A01
KIDI 150455Z AUTO 00000KT 10SM SCT050 BKN055 23/21 A3012 RMK A01
KIDI 150435Z AUTO 00000KT 10SM BKN050 23/21 A3012 RMK A01
KIDI 150415Z AUTO 00000KT 10SM SCT050 23/21 A3013 RMK A01
KIDI 150355Z AUTO 00000KT 10SM FEW050 23/21 A3012 RMK A01
KIDI 150335Z AUTO 00000KT 10SM FEW050 FEW055 23/21 A3012 RMK A01
KIDI 150315Z AUTO 00000KT 10SM SCT050 23/21 A3012 RMK A01
KIDI 150255Z AUTO 00000KT 10SM FEW049 24/21 A3011 RMK A01
KIDI 150235Z AUTO 00000KT 10SM BKN050 24/22 A3011 RMK A01
KIDI 150215Z AUTO 00000KT 10SM BKN050 24/22 A3011 RMK A01
KIDI 150155Z AUTO 00000KT 10SM SCT050 24/22 A3011 RMK A01
KIDI 150135Z AUTO 00000KT 10SM FEW055 25/22 A3010 RMK A01
KIDI 150115Z AUTO 00000KT 10SM FEW065 25/22 A3009 RMK A01
KIDI 150055Z AUTO 00000KT 10SM FEW065 26/22 A3009 RMK A01
KIDI 150035Z AUTO 00000KT 10SM CLR 26/23 A3009 RMK A01
KIDI 150015Z AUTO 00000KT 10SM FEW060 BKN070 28/22 A3009 RMK A01
KIDI 142355Z AUTO 00000KT 10SM OVC070 29/20 A3010 RMK A01
KIDI 142335Z AUTO 00000KT 10SM FEW050 OVC065 29/21 A3010 RMK A01
KIDI 142315Z AUTO VRB03KT 10SM BKN050 BKN065 BKN075 29/20 A3011 RMK A01